createdAt,value
2017-05-01T00:00:34.081Z,67
2017-05-01T00:01:35.894Z,67.2
2017-05-01T00:02:37.749Z,67.4
2017-05-01T00:03:39.575Z,67.4
2017-05-01T00:04:41.381Z,67.6
2017-05-01T00:05:43.194Z,67.6
2017-05-01T00:06:45.005Z,67.5
2017-05-01T00:07:46.850Z,67.7
2017-05-01T00:08:48.657Z,67.8
2017-05-01T00:09:50.840Z,68
2017-05-01T00:10:52.994Z,67.9
2017-05-01T00:11:55.178Z,67.8
2017-05-01T00:12:57.330Z,67.6
2017-05-01T00:13:59.478Z,67.9
2017-05-01T00:15:01.285Z,67.9
2017-05-01T00:16:03.100Z,67.9
2017-05-01T00:17:04.915Z,68
2017-05-01T00:18:07.063Z,68.2
2017-05-01T00:19:08.877Z,68
2017-05-01T00:20:11.022Z,68
2017-05-01T00:21:12.834Z,68.1
2017-05-01T00:22:14.643Z,68.3
2017-05-01T00:23:16.448Z,68.2
2017-05-01T00:24:18.593Z,68.5
2017-05-01T00:25:20.407Z,68.6
2017-05-01T00:26:22.564Z,68.5
2017-05-01T00:27:24.373Z,68.4
2017-05-01T00:28:26.178Z,68.6
2017-05-01T00:29:28.335Z,68.8
2017-05-01T00:30:30.139Z,68.7
2017-05-01T00:31:31.936Z,68.7
2017-05-01T00:32:33.787Z,68.8
2017-05-01T00:33:35.592Z,68.6
2017-05-01T00:34:37.415Z,68.6
2017-05-01T00:35:39.215Z,68.5
2017-05-01T00:36:41.030Z,68.5
2017-05-01T00:37:42.839Z,68.7
2017-05-01T00:38:45.343Z,69
2017-05-01T00:39:47.143Z,69
2017-05-01T00:40:48.951Z,69.1
2017-05-01T00:41:50.765Z,69.3
2017-05-01T00:42:52.586Z,69.1
2017-05-01T00:43:54.736Z,69
2017-05-01T00:44:56.889Z,69.1
2017-05-01T00:45:59.047Z,69.3
2017-05-01T00:47:00.861Z,69.5
2017-05-01T00:48:02.999Z,69.1
2017-05-01T00:49:04.813Z,69.1
2017-05-01T00:50:06.630Z,69.1
2017-05-01T00:51:08.436Z,69.4
2017-05-01T00:52:10.246Z,69.3
2017-05-01T00:53:12.058Z,69.3
2017-05-01T00:54:14.207Z,69.3
2017-05-01T00:55:16.362Z,69.5
2017-05-01T00:56:18.180Z,69.5
2017-05-01T00:57:19.975Z,69.5
2017-05-01T00:58:21.786Z,69.5
2017-05-01T00:59:23.601Z,69.7
2017-05-01T01:00:25.421Z,69.6
2017-05-01T01:01:27.233Z,69.5
2017-05-01T01:02:29.031Z,69.7
2017-05-01T01:03:30.854Z,69.6
2017-05-01T01:04:32.681Z,69.6
2017-05-01T01:05:34.489Z,69.7
2017-05-01T01:06:36.314Z,69.8
2017-05-01T01:07:38.112Z,69.9
2017-05-01T01:08:39.929Z,69.8
2017-05-01T01:09:41.743Z,69.7
2017-05-01T01:10:43.557Z,70
2017-05-01T01:11:45.371Z,69.8
2017-05-01T01:12:47.186Z,69.7
2017-05-01T01:13:49.001Z,69.8
2017-05-01T01:14:50.810Z,70.1
2017-05-01T01:15:52.609Z,70.2
2017-05-01T01:16:54.418Z,70
2017-05-01T01:17:56.228Z,70
2017-05-01T01:18:58.371Z,69.8
2017-05-01T01:20:00.169Z,69.7
2017-05-01T01:21:01.993Z,69.9
2017-05-01T01:22:03.792Z,69.8
2017-05-01T01:23:05.939Z,69.8
2017-05-01T01:24:07.793Z,69.7
2017-05-01T01:25:09.601Z,69.6
2017-05-01T01:26:11.403Z,69.7
2017-05-01T01:27:13.210Z,69.8
2017-05-01T01:28:15.367Z,69.6
2017-05-01T01:29:17.169Z,69.7
2017-05-01T01:30:19.323Z,69.7
2017-05-01T01:31:21.136Z,69.8
2017-05-01T01:32:22.936Z,69.8
2017-05-01T01:33:24.755Z,69.6
2017-05-01T01:34:26.897Z,69.6
2017-05-01T01:35:29.732Z,69.6
2017-05-01T01:36:31.538Z,69.7
2017-05-01T01:37:33.364Z,69.9
2017-05-01T01:38:35.162Z,69.8
2017-05-01T01:39:37.314Z,69.5
2017-05-01T01:40:39.125Z,69.3
2017-05-01T01:41:40.968Z,69.4
2017-05-01T01:42:42.792Z,69.7
2017-05-01T01:43:44.611Z,69.7
2017-05-01T01:44:46.415Z,69.7
2017-05-01T01:45:48.240Z,69.7
2017-05-01T01:46:50.046Z,69.7
2017-05-01T01:47:51.863Z,69.8
2017-05-01T01:48:53.660Z,69.6
2017-05-01T01:49:56.175Z,69.5
2017-05-01T01:50:57.993Z,69.7
2017-05-01T01:51:59.805Z,69.8
2017-05-01T01:53:01.631Z,69.9
2017-05-01T01:54:03.426Z,69.7
2017-05-01T01:55:05.231Z,69.5
2017-05-01T01:56:07.341Z,69.6
2017-05-01T01:57:09.140Z,69.5
2017-05-01T01:58:10.949Z,69.8
2017-05-01T01:59:13.442Z,69.7
2017-05-01T02:00:15.250Z,69.5
2017-05-01T02:01:17.055Z,69.6
2017-05-01T02:02:18.878Z,69.9
2017-05-01T02:03:21.377Z,70
2017-05-01T02:04:23.187Z,69.9
2017-05-01T02:05:25.004Z,69.7
2017-05-01T02:06:26.827Z,70
2017-05-01T02:07:28.641Z,70.2
2017-05-01T02:08:30.447Z,70.1
2017-05-01T02:09:32.298Z,70.1
2017-05-01T02:10:34.101Z,70.3
2017-05-01T02:11:36.253Z,70.3
2017-05-01T02:12:38.402Z,70
2017-05-01T02:13:40.207Z,70.1
2017-05-01T02:14:42.019Z,70.2
2017-05-01T02:15:43.831Z,70.6
2017-05-01T02:16:45.644Z,70.7
2017-05-01T02:17:47.776Z,70.8
2017-05-01T02:18:49.602Z,70.6
2017-05-01T02:19:51.399Z,70.6
2017-05-01T02:20:53.215Z,70.9
2017-05-01T02:21:55.366Z,71
2017-05-01T02:22:57.173Z,70.9
2017-05-01T02:23:59.342Z,70.6
2017-05-01T02:25:01.149Z,70.5
2017-05-01T02:26:02.970Z,70.8
2017-05-01T02:27:04.765Z,70.7
2017-05-01T02:28:06.588Z,70.6
2017-05-01T02:29:08.408Z,70.6
2017-05-01T02:30:10.216Z,70.7
2017-05-01T02:31:12.036Z,70.9
2017-05-01T02:32:13.854Z,71
2017-05-01T02:33:15.666Z,71.1
2017-05-01T02:34:17.825Z,71.1
2017-05-01T02:35:20.306Z,71.1
2017-05-01T02:36:22.122Z,71.2
2017-05-01T02:37:23.923Z,71.4
2017-05-01T02:38:25.746Z,71
2017-05-01T02:39:27.543Z,71
2017-05-01T02:40:29.350Z,71.4
2017-05-01T02:41:31.496Z,71.4
2017-05-01T02:42:33.294Z,71.5
2017-05-01T02:43:35.113Z,71.4
2017-05-01T02:44:37.258Z,71.4
2017-05-01T02:45:39.070Z,71.3
2017-05-01T02:46:40.887Z,71.6
2017-05-01T02:47:43.038Z,71.6
2017-05-01T02:48:44.847Z,71.6
2017-05-01T02:49:46.661Z,71.5
2017-05-01T02:50:48.477Z,71.4
2017-05-01T02:51:50.276Z,71.6
2017-05-01T02:52:52.431Z,71.6
2017-05-01T02:53:54.573Z,71.6
2017-05-01T02:54:56.714Z,71.5
2017-05-01T02:55:58.523Z,71.5
2017-05-01T02:57:00.333Z,71.6
2017-05-01T02:58:02.153Z,71.8
2017-05-01T02:59:03.962Z,72
2017-05-01T03:00:05.759Z,71.9
2017-05-01T03:01:07.567Z,71.8
2017-05-01T03:02:09.377Z,72
2017-05-01T03:03:11.188Z,72.1
2017-05-01T03:04:13.003Z,72.2
2017-05-01T03:05:15.161Z,72.1
2017-05-01T03:06:16.988Z,71.9
2017-05-01T03:07:18.810Z,72.2
2017-05-01T03:08:20.608Z,72.2
2017-05-01T03:09:22.782Z,72.1
2017-05-01T03:10:24.602Z,72.3
2017-05-01T03:11:26.746Z,72.2
2017-05-01T03:12:28.549Z,72.6
2017-05-01T03:13:30.367Z,72.5
2017-05-01T03:14:32.179Z,72.5
2017-05-01T03:15:34.000Z,72.5
2017-05-01T03:16:35.794Z,72.5
2017-05-01T03:17:37.606Z,72.5
2017-05-01T03:18:39.407Z,72.5
2017-05-01T03:19:41.238Z,72.5
2017-05-01T03:20:43.041Z,72.7
2017-05-01T03:21:45.197Z,72.5
2017-05-01T03:22:47.006Z,72.6
2017-05-01T03:23:48.820Z,72.7
2017-05-01T03:24:50.977Z,72.6
2017-05-01T03:25:52.777Z,72.5
2017-05-01T03:26:54.594Z,72.6
2017-05-01T03:27:56.414Z,72.7
2017-05-01T03:28:58.564Z,72.6
2017-05-01T03:30:00.372Z,72.9
2017-05-01T03:31:02.190Z,72.9
2017-05-01T03:32:03.998Z,72.7
2017-05-01T03:33:05.808Z,72.9
2017-05-01T03:34:07.620Z,73
2017-05-01T03:35:09.436Z,72.9
2017-05-01T03:36:11.240Z,72.9
2017-05-01T03:37:13.050Z,73.4
2017-05-01T03:38:14.856Z,73.5
2017-05-01T03:39:16.663Z,73.4
2017-05-01T03:40:18.501Z,73.3
2017-05-01T03:41:20.650Z,73.3
2017-05-01T03:42:22.457Z,73.4
2017-05-01T03:43:24.606Z,73.6
2017-05-01T03:44:26.428Z,73.4
2017-05-01T03:45:28.571Z,73.4
2017-05-01T03:46:30.389Z,73.4
2017-05-01T03:47:32.209Z,73.7
2017-05-01T03:48:34.018Z,73.6
2017-05-01T03:49:35.816Z,73.5
2017-05-01T03:50:37.629Z,73.7
2017-05-01T03:51:39.431Z,73.6
2017-05-01T03:52:41.634Z,73.7
2017-05-01T03:53:43.435Z,73.6
2017-05-01T03:54:45.243Z,73.3
2017-05-01T03:55:47.040Z,73.6
2017-05-01T03:56:48.851Z,74
2017-05-01T03:57:50.646Z,74.1
2017-05-01T03:58:52.491Z,74.3
2017-05-01T03:59:54.300Z,74.5
2017-05-01T04:00:56.106Z,74.4
2017-05-01T04:01:58.256Z,73.8
2017-05-01T04:03:00.059Z,73.9
2017-05-01T04:04:02.542Z,74.4
2017-05-01T04:05:04.343Z,74.2
2017-05-01T04:06:06.502Z,74.3
2017-05-01T04:07:08.298Z,74.3
2017-05-01T04:08:10.117Z,74.1
2017-05-01T04:09:12.277Z,74.6
2017-05-01T04:10:14.078Z,74.6
2017-05-01T04:11:15.888Z,74.5
2017-05-01T04:12:17.700Z,74.4
2017-05-01T04:13:19.848Z,74.5
2017-05-01T04:14:22.006Z,74.4
2017-05-01T04:15:24.157Z,74.7
2017-05-01T04:16:25.969Z,74.6
2017-05-01T04:17:27.770Z,74.5
2017-05-01T04:18:29.592Z,74.6
2017-05-01T04:19:31.404Z,74.7
2017-05-01T04:20:33.243Z,74.8
2017-05-01T04:21:35.051Z,74.5
2017-05-01T04:22:36.863Z,74.6
2017-05-01T04:23:38.669Z,74.6
2017-05-01T04:24:40.485Z,74.8
2017-05-01T04:25:42.655Z,74.7
2017-05-01T04:26:44.812Z,74.3
2017-05-01T04:27:46.617Z,73.7
2017-05-01T04:28:48.426Z,73.8
2017-05-01T04:29:50.246Z,74.3
2017-05-01T04:30:52.045Z,74.4
2017-05-01T04:31:53.861Z,74.7
2017-05-01T04:32:56.002Z,74.6
2017-05-01T04:33:58.168Z,74.7
2017-05-01T04:34:59.979Z,74.7
2017-05-01T04:36:01.787Z,74.7
2017-05-01T04:37:03.591Z,74.6
2017-05-01T04:38:05.398Z,74.5
2017-05-01T04:39:07.225Z,74.7
2017-05-01T04:40:09.378Z,74.8
2017-05-01T04:41:11.180Z,75
2017-05-01T04:42:12.986Z,75
2017-05-01T04:43:14.796Z,74.9
2017-05-01T04:44:16.598Z,74.7
2017-05-01T04:45:18.408Z,74.7
2017-05-01T04:46:20.248Z,74.5
2017-05-01T04:47:22.105Z,74.8
2017-05-01T04:48:23.908Z,74.9
2017-05-01T04:49:25.720Z,74.7
2017-05-01T04:50:27.536Z,74.6
2017-05-01T04:51:29.347Z,74.6
2017-05-01T04:52:31.161Z,74.7
2017-05-01T04:53:33.325Z,74.7
2017-05-01T04:54:35.476Z,74.5
2017-05-01T04:55:37.282Z,74.6
2017-05-01T04:56:39.093Z,74.5
2017-05-01T04:57:40.906Z,74
2017-05-01T04:58:43.409Z,74
2017-05-01T04:59:45.221Z,73.9
2017-05-01T05:00:47.072Z,74
2017-05-01T05:01:48.886Z,74.1
2017-05-01T05:02:50.689Z,74
2017-05-01T05:03:52.505Z,73.9
2017-05-01T05:04:54.315Z,73.5
2017-05-01T05:05:56.818Z,73.6
2017-05-01T05:06:58.638Z,73.8
2017-05-01T05:08:00.448Z,73.6
2017-05-01T05:09:02.259Z,73.5
2017-05-01T05:10:04.069Z,73.5
2017-05-01T05:11:05.889Z,73.6
2017-05-01T05:12:08.030Z,73.8
2017-05-01T05:13:10.188Z,73.8
2017-05-01T05:14:12.677Z,73.4
2017-05-01T05:15:15.222Z,73.1
2017-05-01T05:16:17.374Z,73.2
2017-05-01T05:17:19.864Z,73.4
2017-05-01T05:18:22.003Z,73.5
2017-05-01T05:19:23.815Z,73.4
2017-05-01T05:20:25.638Z,73.2
2017-05-01T05:21:27.452Z,72.7
2017-05-01T05:22:29.268Z,72.7
2017-05-01T05:23:31.083Z,73
2017-05-01T05:24:33.246Z,73
2017-05-01T05:25:35.044Z,72.7
2017-05-01T05:26:36.862Z,72.8
2017-05-01T05:27:39.022Z,72.8
2017-05-01T05:28:41.190Z,72.9
2017-05-01T05:29:42.992Z,72.5
2017-05-01T05:30:44.801Z,72.4
2017-05-01T05:31:46.605Z,72.7
2017-05-01T05:32:48.768Z,72.9
2017-05-01T05:33:50.579Z,72.7
2017-05-01T05:34:52.392Z,73.1
2017-05-01T05:35:54.203Z,73.2
2017-05-01T05:36:56.026Z,73.1
2017-05-01T05:37:57.861Z,72.9
2017-05-01T05:38:59.673Z,72.8
2017-05-01T05:40:01.478Z,72.9
2017-05-01T05:41:03.290Z,73
2017-05-01T05:42:05.442Z,72.7
2017-05-01T05:43:07.621Z,72.8
2017-05-01T05:44:09.764Z,72.7
2017-05-01T05:45:11.585Z,72.8
2017-05-01T05:46:13.388Z,72.9
2017-05-01T05:47:15.199Z,72.8
2017-05-01T05:48:17.018Z,72.6
2017-05-01T05:49:19.180Z,72.5
2017-05-01T05:50:21.325Z,72.5
2017-05-01T05:51:23.139Z,72.2
2017-05-01T05:52:24.958Z,72.3
2017-05-01T05:53:27.098Z,72.1
2017-05-01T05:54:28.918Z,72.5
2017-05-01T05:55:30.726Z,72.2
2017-05-01T05:56:32.534Z,72
2017-05-01T05:57:34.687Z,71.8
2017-05-01T05:58:36.811Z,71.6
2017-05-01T05:59:38.613Z,71.8
2017-05-01T06:00:40.755Z,71.7
2017-05-01T06:01:42.584Z,71.7
2017-05-01T06:02:44.391Z,71.6
2017-05-01T06:03:46.204Z,71.3
2017-05-01T06:04:48.022Z,71.4
2017-05-01T06:05:49.835Z,71.6
2017-05-01T06:06:51.641Z,71.5
2017-05-01T06:07:53.461Z,71.3
2017-05-01T06:08:55.601Z,71.4
2017-05-01T06:09:57.428Z,71.4
2017-05-01T06:10:59.256Z,71.1
2017-05-01T06:12:01.063Z,71.1
2017-05-01T06:13:02.876Z,71.6
2017-05-01T06:14:04.703Z,71.5
2017-05-01T06:15:06.518Z,71.5
2017-05-01T06:16:08.331Z,71.4
2017-05-01T06:17:10.151Z,71.4
2017-05-01T06:18:11.959Z,71.5
2017-05-01T06:19:13.786Z,71.2
2017-05-01T06:20:15.598Z,71.1
2017-05-01T06:21:17.400Z,71.1
2017-05-01T06:22:19.212Z,71
2017-05-01T06:23:21.036Z,70.8
2017-05-01T06:24:22.851Z,70.7
2017-05-01T06:25:24.993Z,70.6
2017-05-01T06:26:27.147Z,70.2
2017-05-01T06:27:28.951Z,70.3
2017-05-01T06:28:30.761Z,70.1
2017-05-01T06:29:32.572Z,70.2
2017-05-01T06:30:34.724Z,70.4
2017-05-01T06:31:36.543Z,70.4
2017-05-01T06:32:38.364Z,70.2
2017-05-01T06:33:40.540Z,70.2
2017-05-01T06:34:42.337Z,70.1
2017-05-01T06:35:44.170Z,70.1
2017-05-01T06:36:45.974Z,70.2
2017-05-01T06:37:48.475Z,70.1
2017-05-01T06:38:50.961Z,69.8
2017-05-01T06:39:52.801Z,69.7
2017-05-01T06:40:54.599Z,69.8
2017-05-01T06:41:57.098Z,69.5
2017-05-01T06:42:58.917Z,69.4
2017-05-01T06:44:00.719Z,69.7
2017-05-01T06:45:02.540Z,69.6
2017-05-01T06:46:04.359Z,69.5
2017-05-01T06:47:06.174Z,69.2
2017-05-01T06:48:07.986Z,69.4
2017-05-01T06:49:10.166Z,69
2017-05-01T06:50:11.983Z,68.7
2017-05-01T06:51:13.798Z,68.9
2017-05-01T06:52:15.609Z,68.7
2017-05-01T06:53:17.763Z,68.7
2017-05-01T06:54:19.583Z,68.6
2017-05-01T06:55:21.749Z,68.6
2017-05-01T06:56:23.564Z,68.5
2017-05-01T06:57:25.387Z,68.3
2017-05-01T06:58:27.200Z,68.1
2017-05-01T06:59:29.020Z,68.1
2017-05-01T07:00:30.839Z,67.8
2017-05-01T07:01:32.650Z,68
2017-05-01T07:02:34.793Z,67.8
2017-05-01T07:03:36.615Z,67.5
2017-05-01T07:04:38.425Z,67.4
2017-05-01T07:05:40.236Z,67.1
2017-05-01T07:06:42.040Z,67.1
2017-05-01T07:07:44.544Z,67.8
2017-05-01T07:08:46.345Z,67.1
2017-05-01T07:09:48.489Z,67.3
2017-05-01T07:10:50.305Z,66.9
2017-05-01T07:11:52.113Z,66.9
2017-05-01T07:12:54.281Z,66.4
2017-05-01T07:13:56.437Z,66.4
2017-05-01T07:15:56.081Z,66.2
2017-05-01T07:16:58.278Z,65.8
2017-05-01T07:18:00.148Z,65.8
2017-05-01T07:19:02.020Z,65.8
2017-05-01T07:20:03.895Z,66.2
2017-05-01T07:21:05.752Z,65.9
2017-05-01T07:22:07.952Z,65.6
2017-05-01T07:23:09.829Z,65.3
2017-05-01T07:24:11.693Z,65.2
2017-05-01T07:25:13.563Z,65.5
2017-05-01T07:26:15.434Z,65.4
2017-05-01T07:27:17.307Z,65.2
2017-05-01T07:28:19.176Z,64.9
2017-05-01T07:29:21.382Z,64.6
2017-05-01T07:30:23.238Z,64.4
2017-05-01T07:31:25.119Z,64.5
2017-05-01T07:32:26.980Z,64.1
2017-05-01T07:33:29.185Z,64.6
2017-05-01T07:34:31.054Z,64.1
2017-05-01T07:35:32.918Z,64.1
2017-05-01T07:36:34.785Z,64.8
2017-05-01T07:37:36.660Z,65
2017-05-01T07:38:38.527Z,64.1
2017-05-01T07:39:40.395Z,64.1
2017-05-01T07:40:42.260Z,63.4
2017-05-01T07:41:44.137Z,63.2
2017-05-01T07:42:46.352Z,63.5
2017-05-01T07:43:48.218Z,63.6
2017-05-01T07:44:50.087Z,63.6
2017-05-01T07:45:51.957Z,62.9
2017-05-01T07:46:54.159Z,62.7
2017-05-01T07:47:56.372Z,62.3
2017-05-01T07:48:58.246Z,63
2017-05-01T07:50:00.124Z,62.5
2017-05-01T07:51:01.990Z,62.2
2017-05-01T07:52:03.872Z,62.4
2017-05-01T07:53:05.734Z,62.2
2017-05-01T07:54:07.949Z,62.3
2017-05-01T07:55:09.815Z,61.9
2017-05-01T07:56:11.684Z,62.3
2017-05-01T07:57:13.556Z,61.2
2017-05-01T07:58:15.768Z,61.2
2017-05-01T07:59:17.985Z,61.2
2017-05-01T08:00:19.860Z,61.5
2017-05-01T08:01:22.103Z,61.7
2017-05-01T08:02:23.963Z,61.4
2017-05-01T08:03:25.827Z,61.7
2017-05-01T08:04:28.038Z,61.3
2017-05-01T08:05:29.906Z,61
2017-05-01T08:06:31.796Z,60.6
2017-05-01T08:07:33.656Z,60.5
2017-05-01T08:08:36.540Z,60.4
2017-05-01T08:09:38.407Z,60.3
2017-05-01T08:10:40.279Z,60.3
2017-05-01T08:11:42.477Z,59.8
2017-05-01T08:12:44.353Z,59.8
2017-05-01T08:13:46.224Z,59.8
2017-05-01T08:14:48.099Z,59.8
2017-05-01T08:15:50.306Z,59.7
2017-05-01T08:16:52.181Z,59.2
2017-05-01T08:17:54.396Z,59.2
2017-05-01T08:18:56.262Z,58.7
2017-05-01T08:19:58.144Z,58.6
2017-05-01T08:21:00.354Z,58.1
2017-05-01T08:22:02.223Z,58.4
2017-05-01T08:23:04.453Z,58.6
2017-05-01T08:24:06.335Z,58.5
2017-05-01T08:25:08.207Z,58.3
2017-05-01T08:26:10.076Z,58.3
2017-05-01T08:27:11.984Z,57.8
2017-05-01T08:28:13.863Z,57.9
2017-05-01T08:29:16.434Z,57.7
2017-05-01T08:30:18.997Z,57.3
2017-05-01T08:31:20.862Z,57
2017-05-01T08:32:22.737Z,57
2017-05-01T08:33:24.611Z,56.6
2017-05-01T08:34:26.486Z,56.4
2017-05-01T08:35:28.364Z,55.9
2017-05-01T08:36:30.580Z,56.4
2017-05-01T08:37:32.443Z,56.5
2017-05-01T08:38:34.321Z,56.4
2017-05-01T08:39:36.529Z,56
2017-05-01T08:40:38.397Z,55.5
2017-05-01T08:41:40.268Z,55.7
2017-05-01T08:42:42.152Z,55.7
2017-05-01T08:43:44.360Z,55
2017-05-01T08:44:46.234Z,55.2
2017-05-01T08:45:48.108Z,54.9
2017-05-01T08:46:49.982Z,54.7
2017-05-01T08:47:51.918Z,55.3
2017-05-01T08:48:53.803Z,55
2017-05-01T08:49:55.891Z,55.4
2017-05-01T08:50:58.183Z,55
2017-05-01T08:52:00.056Z,54.6
2017-05-01T08:53:01.930Z,54.1
2017-05-01T08:54:03.810Z,54.5
2017-05-01T08:55:05.684Z,54.5
2017-05-01T08:56:07.573Z,54.1
2017-05-01T08:57:09.447Z,54.2
2017-05-01T08:58:11.322Z,53.7
2017-05-01T08:59:13.223Z,53.5
2017-05-01T09:00:15.136Z,53.5
2017-05-01T09:01:17.013Z,53.4
2017-05-01T09:02:18.888Z,53
2017-05-01T09:03:20.814Z,53
2017-05-01T09:04:23.034Z,53.2
2017-05-01T09:05:25.275Z,52.9
2017-05-01T09:06:27.156Z,53.1
2017-05-01T09:07:29.083Z,52.9
2017-05-01T09:08:30.964Z,52.5
2017-05-01T09:09:33.189Z,52.2
2017-05-01T09:10:35.118Z,52.1
2017-05-01T09:11:37.011Z,52.3
2017-05-01T09:12:38.882Z,51.8
2017-05-01T09:13:40.898Z,51.6
2017-05-01T09:14:42.775Z,51.5
2017-05-01T09:15:45.165Z,51.2
2017-05-01T09:24:29.864Z,52.1
2017-05-01T09:25:31.736Z,51.7
2017-05-01T09:26:33.982Z,50.9
2017-05-01T09:27:35.910Z,51.2
2017-05-01T09:28:37.789Z,50.4
2017-05-01T09:29:39.749Z,49.5
2017-05-01T09:30:41.645Z,49.5
2017-05-01T09:31:43.517Z,49.3
2017-05-01T09:32:45.397Z,49.6
2017-05-01T09:33:47.280Z,49.5
2017-05-01T09:34:49.520Z,50
2017-05-01T09:35:51.396Z,49.4
2017-05-01T09:36:53.278Z,49.5
2017-05-01T09:37:55.160Z,49.9
2017-05-01T09:38:57.038Z,49.1
2017-05-01T09:39:58.930Z,48.4
2017-05-01T09:41:00.886Z,48.8
2017-05-01T09:42:02.761Z,48.6
2017-05-01T09:43:04.782Z,48.8
2017-05-01T09:44:07.015Z,49.3
2017-05-01T09:45:09.441Z,49.7
2017-05-01T09:46:11.663Z,49.4
2017-05-01T09:47:13.545Z,49.7
2017-05-01T09:48:15.579Z,49.4
2017-05-01T09:49:17.466Z,48.5
2017-05-01T09:50:19.355Z,48.9
2017-05-01T09:51:21.244Z,48.4
2017-05-01T09:52:23.260Z,47.8
2017-05-01T09:53:25.533Z,47.8
2017-05-01T09:54:28.551Z,47.6
2017-05-01T09:55:30.425Z,47.7
2017-05-01T09:56:32.309Z,47.4
2017-05-01T09:57:34.201Z,47.3
2017-05-01T09:58:36.089Z,48
2017-05-01T09:59:38.326Z,47.5
2017-05-01T10:00:40.204Z,47.2
2017-05-01T10:01:42.083Z,47.5
2017-05-01T10:02:43.982Z,46.8
2017-05-01T10:03:46.199Z,47.2
2017-05-01T10:04:48.107Z,46.7
2017-05-01T10:05:50.331Z,47.7
2017-05-01T10:07:24.550Z,48.2
2017-05-01T10:08:26.442Z,47.5
2017-05-01T10:09:28.345Z,47.8
2017-05-01T10:10:30.230Z,48.4
2017-05-01T10:11:32.121Z,47.7
2017-05-01T10:12:34.010Z,47.6
2017-05-01T10:13:35.912Z,47
2017-05-01T10:14:37.811Z,47.5
2017-05-01T10:15:39.687Z,47.6
2017-05-01T10:16:41.577Z,47.3
2017-05-01T10:17:43.826Z,47.1
2017-05-01T10:18:45.725Z,46.5
2017-05-01T10:19:47.616Z,45.8
2017-05-01T10:20:49.517Z,45.7
2017-05-01T10:21:51.418Z,45.7
2017-05-01T10:22:53.327Z,46.1
2017-05-01T10:23:55.216Z,45.6
2017-05-01T10:24:57.451Z,45.8
2017-05-01T10:25:59.347Z,45.1
2017-05-01T10:27:01.255Z,45.5
2017-05-01T10:28:03.478Z,45.2
2017-05-01T10:29:05.371Z,45.4
2017-05-01T10:30:07.313Z,45.2
2017-05-01T10:31:09.204Z,45.4
2017-05-01T10:32:11.419Z,45.1
2017-05-01T10:33:13.351Z,45
2017-05-01T10:34:15.245Z,45.5
2017-05-01T10:35:17.488Z,44.8
2017-05-01T10:36:19.720Z,44.2
2017-05-01T10:37:21.604Z,45
2017-05-01T10:38:23.498Z,45.7
2017-05-01T10:39:25.728Z,45.1
2017-05-01T10:40:27.985Z,45.3
2017-05-01T10:41:30.227Z,44.6
2017-05-01T10:42:32.122Z,44.7
2017-05-01T10:43:34.021Z,44.1
2017-05-01T10:44:36.267Z,44.4
2017-05-01T10:45:38.499Z,45
2017-05-01T10:46:40.737Z,44.3
2017-05-01T10:47:42.635Z,45
2017-05-01T10:48:45.233Z,45.1
2017-05-01T10:49:47.119Z,45.3
2017-05-01T10:50:49.000Z,44.6
2017-05-01T10:51:51.242Z,43.8
2017-05-01T10:52:53.134Z,43.6
2017-05-01T10:53:55.034Z,42.8
2017-05-01T10:54:57.278Z,43.5
2017-05-01T10:55:59.171Z,43.5
2017-05-01T10:57:01.054Z,42.8
2017-05-01T10:58:03.248Z,43.3
2017-05-01T10:59:05.683Z,42.7
2017-05-01T11:00:20.270Z,43
2017-05-01T11:01:22.123Z,42.6
2017-05-01T11:02:23.980Z,43.4
2017-05-01T11:03:26.513Z,43.2
2017-05-01T11:04:28.363Z,43
2017-05-01T11:05:30.253Z,43.3
2017-05-01T11:06:32.098Z,43.9
2017-05-01T11:07:33.978Z,44.1
2017-05-01T11:08:35.829Z,43.5
2017-05-01T11:09:37.689Z,43.4
2017-05-01T11:10:39.892Z,43.3
2017-05-01T11:11:41.744Z,43.1
2017-05-01T11:12:43.590Z,42.4
2017-05-01T11:13:45.452Z,41.9
2017-05-01T11:14:47.306Z,41.8
2017-05-01T11:15:49.168Z,41.7
2017-05-01T11:16:51.372Z,42
2017-05-01T11:17:53.231Z,41.1
2017-05-01T11:18:55.118Z,40.8
2017-05-01T11:19:56.953Z,41
2017-05-01T11:20:58.790Z,41.1
2017-05-01T11:22:00.641Z,40.6
2017-05-01T11:23:02.482Z,40.9
2017-05-01T11:24:04.335Z,41
2017-05-01T11:25:06.172Z,41.3
2017-05-01T11:26:08.021Z,41.7
2017-05-01T11:27:09.860Z,41.6
2017-05-01T11:28:11.704Z,42.2
2017-05-01T11:29:13.548Z,41.6
2017-05-01T11:30:15.393Z,41.7
2017-05-01T11:31:17.221Z,41.4
2017-05-01T11:32:19.071Z,41.5
2017-05-01T11:33:20.917Z,42.1
2017-05-01T11:34:22.755Z,42.1
2017-05-01T11:35:24.609Z,41
2017-05-01T11:36:26.518Z,40.5
2017-05-01T11:37:28.410Z,39.9
2017-05-01T11:38:30.641Z,39.5
2017-05-01T11:39:32.521Z,39.9
2017-05-01T11:40:34.398Z,40.7
2017-05-01T11:41:36.269Z,41.2
2017-05-01T11:42:38.485Z,41.6
2017-05-01T11:43:40.393Z,42.4
2017-05-01T11:44:42.263Z,42.1
2017-05-01T11:45:44.158Z,42.8
2017-05-01T11:46:46.029Z,42.8
2017-05-01T11:47:47.947Z,42.7
2017-05-01T11:48:50.174Z,42
2017-05-01T11:49:52.425Z,41.8
2017-05-01T11:50:54.304Z,42.5
2017-05-01T11:51:56.197Z,43
2017-05-01T11:52:58.087Z,43.3
2017-05-01T11:53:59.975Z,43.5
2017-05-01T11:55:01.843Z,44.1
2017-05-01T11:56:03.726Z,43.8
2017-05-01T11:57:05.608Z,43.5
2017-05-01T11:58:08.196Z,42.6
2017-05-01T11:59:10.435Z,43.3
2017-05-01T12:00:12.315Z,43.5
2017-05-01T12:01:14.194Z,43.2
2017-05-01T12:02:16.083Z,42.7
2017-05-01T12:03:17.952Z,43.2
2017-05-01T12:04:19.837Z,43.9
2017-05-01T12:05:21.717Z,43.9
2017-05-01T12:06:23.611Z,44
2017-05-01T12:07:25.835Z,45.1
2017-05-01T12:08:27.707Z,45.5
2017-05-01T12:09:29.588Z,45
2017-05-01T12:10:36.172Z,44.4
2017-05-01T12:11:38.052Z,44.2
2017-05-01T12:12:40.752Z,44.2
2017-05-01T12:13:42.646Z,44.5
2017-05-01T12:14:44.553Z,45.1
2017-05-01T12:15:46.420Z,44.3
2017-05-01T12:16:48.309Z,44.7
2017-05-01T12:17:50.546Z,44.5
2017-05-01T12:18:52.426Z,44.3
2017-05-01T12:19:54.305Z,44.3
2017-05-01T12:20:56.891Z,44.1
2017-05-01T12:21:58.785Z,43.6
2017-05-01T12:23:00.673Z,43.1
2017-05-01T12:24:02.560Z,43.4
2017-05-01T12:25:04.451Z,43.1
2017-05-01T12:26:06.352Z,43
2017-05-01T12:27:08.560Z,43.2
2017-05-01T12:28:10.471Z,43.7
2017-05-01T12:29:12.547Z,43.7
2017-05-01T12:30:14.463Z,44.2
2017-05-01T12:31:16.695Z,43.9
2017-05-01T12:32:18.565Z,44.1
2017-05-01T12:33:20.472Z,44.4
2017-05-01T12:34:22.349Z,44.3
2017-05-01T12:35:24.220Z,44.9
2017-05-01T12:36:26.113Z,45
2017-05-01T12:37:27.989Z,45.1
2017-05-01T12:38:29.874Z,45.1
2017-05-01T12:39:31.764Z,45.1
2017-05-01T12:40:33.638Z,45.4
2017-05-01T12:41:35.505Z,45.8
2017-05-01T12:42:37.377Z,45.5
2017-05-01T12:43:39.272Z,45.7
2017-05-01T12:44:41.133Z,45.1
2017-05-01T12:45:43.025Z,44.7
2017-05-01T12:46:44.904Z,44.4
2017-05-01T12:47:47.164Z,44.4
2017-05-01T12:48:49.062Z,44.8
2017-05-01T12:49:50.992Z,44.9
2017-05-01T12:50:52.883Z,44.7
2017-05-01T12:51:54.769Z,44.3
2017-05-01T12:52:56.694Z,44.2
2017-05-01T12:53:59.251Z,44.8
2017-05-01T12:55:01.126Z,45
2017-05-01T12:56:03.316Z,45
2017-05-01T12:57:05.715Z,45.1
2017-05-01T12:58:07.619Z,45.1
2017-05-01T12:59:09.497Z,45.5
2017-05-01T13:00:11.390Z,46.1
2017-05-01T13:01:13.258Z,46.1
2017-05-01T13:02:15.155Z,45.6
2017-05-01T13:03:17.038Z,45.4
2017-05-01T13:04:18.919Z,45.7
2017-05-01T13:05:20.831Z,45.9
2017-05-01T13:06:23.056Z,45.6
2017-05-01T13:07:24.961Z,45.5
2017-05-01T13:08:26.857Z,45.5
2017-05-01T13:09:29.071Z,46
2017-05-01T13:10:31.278Z,46.3
2017-05-01T13:11:33.171Z,46.4
2017-05-01T13:12:35.036Z,46.3
2017-05-01T13:13:36.903Z,46.2
2017-05-01T13:14:38.797Z,46.4
2017-05-01T13:15:40.660Z,46.2
2017-05-01T13:16:42.518Z,46
2017-05-01T13:17:44.375Z,45.7
2017-05-01T13:18:46.244Z,46
2017-05-01T13:19:48.131Z,45.9
2017-05-01T13:20:49.998Z,45.9
2017-05-01T13:21:51.890Z,46.1
2017-05-01T13:22:54.083Z,46.1
2017-05-01T13:23:56.649Z,45.8
2017-05-01T13:24:58.527Z,45.6
2017-05-01T13:26:00.431Z,46
2017-05-01T13:27:02.284Z,45.4
2017-05-01T13:28:04.514Z,45.3
2017-05-01T13:29:06.395Z,45.5
2017-05-01T13:30:08.607Z,45.6
2017-05-01T13:31:10.599Z,46.2
2017-05-01T13:32:12.495Z,45.6
2017-05-01T13:33:14.356Z,45.4
2017-05-01T13:34:16.585Z,45.7
2017-05-01T13:35:18.796Z,45.9
2017-05-01T13:36:20.733Z,46.1
2017-05-01T13:37:22.689Z,46.1
2017-05-01T13:38:24.952Z,46.3
2017-05-01T13:39:27.180Z,46.4
2017-05-01T13:40:29.029Z,46.3
2017-05-01T13:41:30.860Z,45.9
2017-05-01T13:42:32.681Z,45.8
2017-05-01T13:43:34.571Z,45.9
2017-05-01T13:44:36.411Z,46.3
2017-05-01T13:45:38.255Z,46.4
2017-05-01T13:46:40.099Z,46.8
2017-05-01T13:47:42.328Z,46.6
2017-05-01T13:48:44.156Z,46.4
2017-05-01T13:49:46.023Z,46.3
2017-05-01T13:50:48.023Z,45.9
2017-05-01T13:51:50.977Z,45.8
2017-05-01T13:52:54.345Z,46
2017-05-01T13:53:56.281Z,46.3
2017-05-01T13:54:59.725Z,46.3
2017-05-01T13:56:02.317Z,46.1
2017-05-01T13:57:08.218Z,46.2
2017-05-01T13:58:14.033Z,46.4
2017-05-01T13:59:19.654Z,46.4